Aérodrome :
LOGIN :

S'inscrire | Disclaimer

   EN    FR    IT 

 










Légende :    VFR   VFR Marginal   IFR   IFR Intensif   IFR Très Intensif
Visi : 
Plafond : 
>= 8 km
>= 3000ft
5 à 8 km
1000 à 3000 ft
1500m à 5 km
500 à 1000 ft
800 à 1500m
200 à 500 ft
< 800m
< 200 ft
Symboles :   Orages  Brouillard  Fortes neiges  Fortes précipitations  Vent > 20 kt
SIGMETs :   Divers  Orages  Givrage  Turbulence  Onde Orograph.  Cendres Volcan.







- Altitude de l'aérodrome : 157 ft
- Code IATA : SXF


EDDB - Berlin Schönefeld

DERNIER METAR :
  • 192150Z 22002KT CAVOK 10/09 Q1017 NOSIG

METARs EXPIRÉS :
  • 192120Z 24003KT CAVOK 10/08 Q1017 NOSIG
  • 192050Z 24002KT CAVOK 11/09 Q1017 NOSIG
  • 192020Z 25004KT CAVOK 12/09 Q1017 NOSIG
  • 191950Z 27004KT CAVOK 12/09 Q1017 NOSIG
  • 191920Z 28005KT CAVOK 13/09 Q1017 NOSIG

TAF TAF EDDB
Valide du 19 à 18h jusqu'au 20 à 18h UTC


191700Z 1918/2018 VRB03KT 9999 FEW045
PROB30
TEMPO 2004/2007 BKN005
Pas de NOTAMs connus pour ce terrain.



MET'MAP, la Météo Aéronautique d'un coup d'oeil ! - Copyright ORBIFLY Décembre 2007 - Disclaimer

ORBIFLY MET'MAP TEAM :

Programmation & Développement : Alexandra Zaïnal
Conception & Développement : Baudouin d'Aumeries
Co-Programmation & Développement : Marc-Olivier Méhu
Soutien technique & logistique : Manuel Goepfert

Contact : metmap@orbifly.com




SOURCES & CREDITS :

   NOAA